createdAt,value
2023-01-13T00:00:30.228Z,10.97
2023-01-13T00:02:58.276Z,11.47
2023-01-13T00:05:26.645Z,10.07
2023-01-13T00:07:54.538Z,12.50
2023-01-13T00:10:22.380Z,12.00
2023-01-13T00:12:50.275Z,10.73
2023-01-13T00:15:18.227Z,12.20
2023-01-13T00:17:48.665Z,16.17
2023-01-13T00:20:17.088Z,12.23
2023-01-13T00:22:44.961Z,13.67
2023-01-13T00:25:12.993Z,10.60
2023-01-13T00:27:41.004Z,14.13
2023-01-13T00:30:10.052Z,14.43
2023-01-13T00:32:37.919Z,14.40
2023-01-13T00:35:08.121Z,10.03
2023-01-13T00:37:37.523Z,13.57
2023-01-13T00:40:06.540Z,10.07
2023-01-13T00:42:52.177Z,10.93
2023-01-13T00:45:20.057Z,11.33
2023-01-13T00:47:47.915Z,10.57
2023-01-13T00:50:17.544Z,16.87
2023-01-13T00:52:45.454Z,14.07
2023-01-13T00:55:13.329Z,15.73
2023-01-13T00:57:41.197Z,9.37
2023-01-13T01:00:10.420Z,12.13
2023-01-13T01:02:38.337Z,11.33
2023-01-13T01:05:07.030Z,10.00
2023-01-13T01:07:36.247Z,13.20
2023-01-13T01:10:04.552Z,13.07
2023-01-13T01:12:32.419Z,15.83
2023-01-13T01:15:00.275Z,11.23
2023-01-13T01:17:29.212Z,13.97
2023-01-13T01:19:57.036Z,12.23
2023-01-13T01:22:24.923Z,10.83
2023-01-13T01:24:54.115Z,10.83
2023-01-13T01:27:22.023Z,13.30
2023-01-13T01:29:49.872Z,16.33
2023-01-13T01:32:17.742Z,17.13
2023-01-13T01:34:45.610Z,17.30
2023-01-13T01:37:13.453Z,14.80
2023-01-13T01:39:41.346Z,12.83
2023-01-13T01:42:33.945Z,17.07
2023-01-13T01:45:03.618Z,18.93
2023-01-13T01:47:33.300Z,16.03
2023-01-13T01:50:03.626Z,17.67
2023-01-13T01:52:35.797Z,19.67
2023-01-13T01:55:07.353Z,17.03
2023-01-13T01:57:43.558Z,17.43
2023-01-13T02:00:13.299Z,14.63
2023-01-13T02:02:41.753Z,22.80
2023-01-13T02:05:10.677Z,19.53
2023-01-13T02:07:40.812Z,18.77
2023-01-13T02:10:11.744Z,16.03
2023-01-13T02:12:43.443Z,20.50
2023-01-13T02:15:14.158Z,19.27
2023-01-13T02:18:03.860Z,16.20
2023-01-13T02:20:53.827Z,21.00
2023-01-13T02:24:13.750Z,24.37
2023-01-13T02:27:25.002Z,19.93
2023-01-13T02:30:19.204Z,16.70
2023-01-13T02:32:57.225Z,18.50
2023-01-13T02:35:31.855Z,15.53
2023-01-13T02:38:01.611Z,18.43
2023-01-13T02:40:35.495Z,16.97
2023-01-13T02:43:27.057Z,15.20
2023-01-13T02:46:01.642Z,12.40
2023-01-13T02:48:32.220Z,19.10
2023-01-13T02:51:04.252Z,17.80
2023-01-13T02:53:37.463Z,17.43
2023-01-13T02:56:07.350Z,17.63
2023-01-13T02:58:37.303Z,18.13
2023-01-13T03:01:06.794Z,13.53
2023-01-13T03:03:36.464Z,15.07
2023-01-13T03:06:19.197Z,15.47
2023-01-13T03:08:51.413Z,11.23
2023-01-13T03:11:20.986Z,15.93
2023-01-13T03:17:12.789Z,16.63
2023-01-13T03:19:48.729Z,13.80
2023-01-13T03:22:23.676Z,13.37
2023-01-13T03:24:54.377Z,16.50
2023-01-13T03:27:26.717Z,12.23
2023-01-13T03:30:00.064Z,14.47
2023-01-13T03:32:33.896Z,12.70
2023-01-13T03:35:08.446Z,15.97
2023-01-13T03:37:40.336Z,13.43
2023-01-13T03:40:12.660Z,13.17
2023-01-13T03:43:03.988Z,9.00
2023-01-13T03:45:33.553Z,10.67
2023-01-13T03:48:07.297Z,15.83
2023-01-13T03:50:40.120Z,9.60
2023-01-13T03:53:12.612Z,8.20
2023-01-13T03:55:45.809Z,10.20
2023-01-13T03:58:17.021Z,12.53
2023-01-13T04:00:51.860Z,8.87
2023-01-13T04:03:26.068Z,11.97
2023-01-13T04:05:59.580Z,10.30
2023-01-13T04:08:29.664Z,11.20
2023-01-13T04:11:03.453Z,11.07
2023-01-13T04:13:36.612Z,12.67
2023-01-13T04:16:07.264Z,15.23
2023-01-13T04:18:38.829Z,14.30
2023-01-13T04:21:09.177Z,12.10
2023-01-13T04:23:37.296Z,9.00
2023-01-13T04:26:05.530Z,11.47
2023-01-13T04:28:34.870Z,10.57
2023-01-13T04:31:02.840Z,8.70
2023-01-13T04:33:30.782Z,17.67
2023-01-13T04:36:00.081Z,13.73
2023-01-13T04:38:28.018Z,14.37
2023-01-13T04:40:55.940Z,11.97
2023-01-13T04:43:23.914Z,14.23
2023-01-13T04:45:51.892Z,13.77
2023-01-13T04:48:19.841Z,13.03
2023-01-13T04:50:47.797Z,13.77
2023-01-13T04:53:17.032Z,10.97
2023-01-13T04:55:47.161Z,10.53
2023-01-13T04:58:15.068Z,8.40
2023-01-13T05:00:43.331Z,10.70
2023-01-13T05:03:11.552Z,12.07
2023-01-13T05:05:39.541Z,10.33
2023-01-13T05:08:08.915Z,11.80
2023-01-13T05:10:38.329Z,11.27
2023-01-13T05:13:23.902Z,10.83
2023-01-13T05:16:17.718Z,10.20
2023-01-13T05:18:45.759Z,12.30
2023-01-13T05:21:27.615Z,11.83
2023-01-13T05:24:12.882Z,10.53
2023-01-13T05:26:42.388Z,9.63
2023-01-13T05:29:10.442Z,10.90
2023-01-13T05:31:38.395Z,11.80
2023-01-13T05:34:06.253Z,5.97
2023-01-13T05:36:34.222Z,9.73
2023-01-13T05:39:02.110Z,8.23
2023-01-13T05:41:47.841Z,7.13
2023-01-13T05:44:17.067Z,8.77
2023-01-13T05:46:45.022Z,7.97
2023-01-13T05:49:12.985Z,12.13
2023-01-13T05:51:40.921Z,9.67
2023-01-13T05:54:08.888Z,9.07
2023-01-13T05:56:36.904Z,9.47
2023-01-13T05:59:04.985Z,10.93
2023-01-13T06:01:35.610Z,7.93
2023-01-13T06:04:03.728Z,10.90
2023-01-13T06:06:31.759Z,8.40
2023-01-13T06:08:59.633Z,8.83
2023-01-13T06:11:27.553Z,13.40
2023-01-13T06:13:55.414Z,8.70
2023-01-13T06:16:23.335Z,8.30
2023-01-13T06:18:52.629Z,8.17
2023-01-13T06:21:20.614Z,12.67
2023-01-13T06:23:51.535Z,10.13
2023-01-13T06:26:23.763Z,13.73
2023-01-13T06:28:51.717Z,12.23
2023-01-13T06:31:20.494Z,9.43
2023-01-13T06:33:54.383Z,10.20
2023-01-13T06:36:26.190Z,10.23
2023-01-13T06:38:57.189Z,8.43
2023-01-13T06:41:41.041Z,9.77
2023-01-13T06:44:08.974Z,11.37
2023-01-13T06:46:37.144Z,12.67
2023-01-13T06:49:06.968Z,11.27
2023-01-13T06:51:34.918Z,12.50
2023-01-13T06:54:03.578Z,13.33
2023-01-13T06:56:31.681Z,11.90
2023-01-13T06:58:59.611Z,11.03
2023-01-13T07:01:27.675Z,12.70
2023-01-13T07:03:55.616Z,12.47
2023-01-13T07:06:25.118Z,9.17
2023-01-13T07:08:53.275Z,13.83
2023-01-13T07:11:21.529Z,12.33
2023-01-13T07:14:06.861Z,11.30
2023-01-13T07:16:34.800Z,9.83
2023-01-13T07:19:02.803Z,11.17
2023-01-13T07:21:32.058Z,11.97
2023-01-13T07:23:59.942Z,12.77
2023-01-13T07:26:27.853Z,11.03
2023-01-13T07:28:55.820Z,10.20
2023-01-13T07:31:23.792Z,12.00
2023-01-13T07:33:51.732Z,12.53
2023-01-13T07:36:19.686Z,12.73
2023-01-13T07:38:48.943Z,11.43
2023-01-13T07:41:34.788Z,11.97
2023-01-13T07:44:06.098Z,12.40
2023-01-13T07:46:34.337Z,10.23
2023-01-13T07:49:02.285Z,16.30
2023-01-13T07:51:30.217Z,9.83
2023-01-13T07:53:59.685Z,9.87
2023-01-13T07:56:27.640Z,11.70
2023-01-13T07:58:55.561Z,12.73
2023-01-13T08:01:23.631Z,13.70
2023-01-13T08:03:51.659Z,14.17
2023-01-13T08:06:19.583Z,16.43
2023-01-13T08:08:47.517Z,12.00
2023-01-13T08:11:16.932Z,15.27
2023-01-13T08:13:44.878Z,11.83
2023-01-13T08:16:15.642Z,13.33
2023-01-13T08:18:44.114Z,13.70
2023-01-13T08:21:14.010Z,14.60
2023-01-13T08:23:43.542Z,12.03
2023-01-13T08:26:13.952Z,15.77
2023-01-13T08:28:43.313Z,12.00
2023-01-13T08:31:13.782Z,12.67
2023-01-13T08:33:42.178Z,17.70
2023-01-13T08:36:12.173Z,19.73
2023-01-13T08:38:40.891Z,11.10
2023-01-13T08:41:12.686Z,14.20
2023-01-13T08:43:40.753Z,14.83
2023-01-13T08:46:10.211Z,16.80
2023-01-13T08:48:38.419Z,15.17
2023-01-13T08:51:08.280Z,10.13
2023-01-13T08:53:36.582Z,17.33
2023-01-13T08:56:10.744Z,15.63
2023-01-13T08:58:38.801Z,16.00
2023-01-13T09:01:07.294Z,15.67
2023-01-13T09:03:36.726Z,20.57
2023-01-13T09:06:05.170Z,12.53
2023-01-13T09:08:33.161Z,17.97
2023-01-13T09:11:01.201Z,17.20
2023-01-13T09:13:28.120Z,14.60
2023-01-13T09:15:56.861Z,13.93
2023-01-13T09:18:25.017Z,20.67
2023-01-13T09:20:54.340Z,16.87
2023-01-13T09:23:22.209Z,13.97
2023-01-13T09:25:50.257Z,17.77
2023-01-13T09:28:18.247Z,16.77
2023-01-13T09:30:46.218Z,13.60
2023-01-13T09:33:31.822Z,19.23
2023-01-13T09:36:01.498Z,15.23
2023-01-13T09:38:29.412Z,13.60
2023-01-13T09:40:57.474Z,15.47
2023-01-13T09:43:48.498Z,19.13
2023-01-13T09:46:34.573Z,15.33
2023-01-13T09:49:03.727Z,19.27
2023-01-13T09:51:37.717Z,19.07
2023-01-13T09:54:13.175Z,18.40
2023-01-13T09:56:41.074Z,18.53
2023-01-13T09:59:11.540Z,16.13
2023-01-13T10:01:45.976Z,15.57
2023-01-13T10:04:16.161Z,18.60
2023-01-13T10:06:49.214Z,15.57
2023-01-13T10:09:22.414Z,18.80
2023-01-13T10:12:09.100Z,14.33
2023-01-13T10:14:43.169Z,13.00
2023-01-13T10:17:22.690Z,18.37
2023-01-13T10:19:57.493Z,28.67
2023-01-13T10:22:47.852Z,13.60
2023-01-13T10:25:50.981Z,15.40
2023-01-13T10:28:19.762Z,20.17
2023-01-13T10:30:48.820Z,15.37
2023-01-13T10:33:18.421Z,13.57
2023-01-13T10:35:59.129Z,16.50
2023-01-13T10:38:31.123Z,16.37
2023-01-13T10:41:01.219Z,21.77
2023-01-13T10:43:30.655Z,21.93
2023-01-13T10:46:03.186Z,20.37
2023-01-13T10:48:40.067Z,15.07
2023-01-13T10:51:18.865Z,20.93
2023-01-13T10:53:52.796Z,18.97
2023-01-13T10:56:23.646Z,14.90
2023-01-13T10:58:51.903Z,19.17
2023-01-13T11:01:26.481Z,13.57
2023-01-13T11:03:55.564Z,16.17
2023-01-13T11:06:25.798Z,13.90
2023-01-13T11:08:58.284Z,14.67
2023-01-13T11:11:37.444Z,13.70
2023-01-13T11:14:26.823Z,16.33
2023-01-13T11:16:58.721Z,16.80
2023-01-13T11:19:32.094Z,15.53
2023-01-13T11:22:06.595Z,16.03
2023-01-13T11:24:41.038Z,16.20
2023-01-13T11:27:15.436Z,15.43
2023-01-13T11:29:50.909Z,10.50
2023-01-13T11:32:20.953Z,18.63
2023-01-13T11:34:52.536Z,13.60
2023-01-13T11:37:25.477Z,14.27
2023-01-13T11:40:01.449Z,18.90
2023-01-13T11:42:37.493Z,18.43
2023-01-13T11:45:16.502Z,15.53
2023-01-13T11:47:47.163Z,13.27
2023-01-13T11:50:18.147Z,14.90
2023-01-13T11:53:05.490Z,14.83
2023-01-13T11:55:45.158Z,16.73
2023-01-13T11:58:26.479Z,14.20
2023-01-13T12:01:27.536Z,17.23
2023-01-13T12:04:08.187Z,17.17
2023-01-13T12:06:38.616Z,16.33
2023-01-13T12:09:23.830Z,17.33
2023-01-13T12:12:22.792Z,18.67
2023-01-13T12:15:21.380Z,13.50
2023-01-13T12:18:03.320Z,13.40
2023-01-13T12:20:40.045Z,15.90
2023-01-13T12:23:14.687Z,13.53
2023-01-13T12:25:47.462Z,12.90
2023-01-13T12:28:21.065Z,11.30
2023-01-13T12:30:52.750Z,10.50
2023-01-13T12:33:30.296Z,13.97
2023-01-13T12:36:03.522Z,15.87
2023-01-13T12:38:37.820Z,12.40
2023-01-13T12:41:16.527Z,11.80
2023-01-13T12:44:06.931Z,15.33
2023-01-13T12:46:53.273Z,11.70
2023-01-13T12:49:30.227Z,12.83
2023-01-13T12:52:19.776Z,13.10
2023-01-13T12:55:16.749Z,16.30
2023-01-13T12:58:15.444Z,11.80
2023-01-13T13:01:02.103Z,9.97
2023-01-13T13:03:36.434Z,13.83
2023-01-13T13:06:23.631Z,12.33
2023-01-13T13:09:03.926Z,12.17
2023-01-13T13:12:04.070Z,12.00
2023-01-13T13:15:03.095Z,10.37
2023-01-13T13:18:00.965Z,13.23
2023-01-13T13:20:55.391Z,10.20
2023-01-13T13:23:47.902Z,9.20
2023-01-13T13:26:30.805Z,11.43
2023-01-13T13:29:41.335Z,13.77
2023-01-13T13:32:48.837Z,10.33
2023-01-13T13:35:37.101Z,12.70
2023-01-13T13:38:37.257Z,9.60
2023-01-13T13:41:29.307Z,14.40
2023-01-13T13:44:21.060Z,12.73
2023-01-13T13:46:50.004Z,8.83
2023-01-13T13:49:19.653Z,12.73
2023-01-13T13:51:59.294Z,8.90
2023-01-13T13:54:28.058Z,8.63
2023-01-13T13:56:56.318Z,11.60
2023-01-13T13:59:26.572Z,11.70
2023-01-13T14:02:01.500Z,8.30
2023-01-13T14:04:31.343Z,9.17
2023-01-13T14:07:04.311Z,9.80
2023-01-13T14:09:42.289Z,12.20
2023-01-13T14:12:19.482Z,8.10
2023-01-13T14:14:49.170Z,9.17
2023-01-13T14:17:23.457Z,12.33
2023-01-13T14:19:57.324Z,11.20
2023-01-13T14:22:26.599Z,11.27
2023-01-13T14:24:57.711Z,9.90
2023-01-13T14:27:27.587Z,8.80
2023-01-13T14:29:58.114Z,9.97
2023-01-13T14:32:34.091Z,10.43
2023-01-13T14:35:02.251Z,11.03
2023-01-13T14:37:35.962Z,16.13
2023-01-13T14:40:04.652Z,11.63
2023-01-13T14:42:35.274Z,9.37
2023-01-13T14:45:03.552Z,12.50
2023-01-13T14:47:33.867Z,11.50
2023-01-13T14:50:05.010Z,7.77
2023-01-13T14:52:36.648Z,11.83
2023-01-13T14:55:24.785Z,11.97
2023-01-13T14:57:52.956Z,10.93
2023-01-13T15:00:24.389Z,13.30
2023-01-13T15:03:07.199Z,11.83
2023-01-13T15:05:49.136Z,11.90
2023-01-13T15:08:40.299Z,12.93
2023-01-13T15:11:17.716Z,16.50
2023-01-13T15:13:52.843Z,12.27
2023-01-13T15:16:24.897Z,12.23
2023-01-13T15:18:53.566Z,13.90
2023-01-13T15:21:21.779Z,12.90
2023-01-13T15:23:51.106Z,11.77
2023-01-13T15:26:25.380Z,12.87
2023-01-13T15:28:55.473Z,11.23
2023-01-13T15:31:24.421Z,10.67
2023-01-13T15:33:52.381Z,11.83
2023-01-13T15:36:26.755Z,11.20
2023-01-13T15:38:56.792Z,9.57
2023-01-13T15:41:43.117Z,9.20
2023-01-13T15:44:30.329Z,9.70
2023-01-13T15:47:00.135Z,12.17
2023-01-13T15:49:34.725Z,10.40
2023-01-13T15:52:03.811Z,9.30
2023-01-13T15:54:33.223Z,9.97
2023-01-13T15:57:01.672Z,12.73
2023-01-13T15:59:29.603Z,10.40
2023-01-13T16:01:57.548Z,7.90
2023-01-13T16:04:25.438Z,9.73
2023-01-13T16:06:53.407Z,8.10
2023-01-13T16:09:21.304Z,7.50
2023-01-13T16:11:50.563Z,10.43
2023-01-13T16:14:18.529Z,12.23
2023-01-13T16:16:46.486Z,10.60
2023-01-13T16:19:14.360Z,9.93
2023-01-13T16:21:42.334Z,12.83
2023-01-13T16:24:10.219Z,10.73
2023-01-13T16:26:38.918Z,7.37
2023-01-13T16:29:09.421Z,13.43
2023-01-13T16:31:37.770Z,6.33
2023-01-13T16:34:06.746Z,11.13
2023-01-13T16:36:37.196Z,6.67
2023-01-13T16:39:06.447Z,10.13
2023-01-13T16:41:35.471Z,8.20
2023-01-13T16:44:05.976Z,9.47
2023-01-13T16:46:35.400Z,11.60
2023-01-13T16:49:05.848Z,10.77
2023-01-13T16:51:34.339Z,8.73
2023-01-13T16:54:02.321Z,10.93
2023-01-13T16:56:32.349Z,7.50
2023-01-13T16:59:04.495Z,9.40
2023-01-13T17:01:33.921Z,11.40
2023-01-13T17:04:03.777Z,10.80
2023-01-13T17:06:35.443Z,12.63
2023-01-13T17:09:04.563Z,9.77
2023-01-13T17:11:32.585Z,8.27
2023-01-13T17:14:00.783Z,12.83
2023-01-13T17:16:39.395Z,9.63
2023-01-13T17:19:09.067Z,14.23
2023-01-13T17:21:36.989Z,9.87
2023-01-13T17:24:06.001Z,13.40
2023-01-13T17:26:37.951Z,11.00
2023-01-13T17:29:08.606Z,13.20
2023-01-13T17:31:37.348Z,10.00
2023-01-13T17:34:06.235Z,14.43
2023-01-13T17:36:35.483Z,14.50
2023-01-13T17:39:03.455Z,12.07
2023-01-13T17:41:31.357Z,17.87
2023-01-13T17:43:59.315Z,10.37
2023-01-13T17:46:27.254Z,11.87
2023-01-13T17:48:55.882Z,12.10
2023-01-13T17:51:24.986Z,12.50
2023-01-13T17:53:54.648Z,15.43
2023-01-13T17:56:24.559Z,9.97
2023-01-13T17:58:52.502Z,12.97
2023-01-13T18:01:22.333Z,15.67
2023-01-13T18:03:50.799Z,10.67
2023-01-13T18:06:20.764Z,13.07
2023-01-13T18:08:49.409Z,11.80
2023-01-13T18:11:20.816Z,16.47
2023-01-13T18:13:50.494Z,9.73
2023-01-13T18:16:20.221Z,15.13
2023-01-13T18:18:50.368Z,16.17
2023-01-13T18:21:38.690Z,12.00
2023-01-13T18:24:32.888Z,10.07
2023-01-13T18:27:22.735Z,13.87
2023-01-13T18:29:52.840Z,11.70
2023-01-13T18:32:21.904Z,12.50
2023-01-13T18:34:53.941Z,12.20
2023-01-13T18:37:27.401Z,15.77
2023-01-13T18:39:55.290Z,10.27
2023-01-13T18:42:41.962Z,14.00
2023-01-13T18:45:10.774Z,10.97
2023-01-13T18:47:42.074Z,13.73
2023-01-13T18:50:13.652Z,10.33
2023-01-13T18:52:41.786Z,13.63
2023-01-13T18:55:10.730Z,14.43
2023-01-13T18:57:40.920Z,7.70
2023-01-13T19:00:11.626Z,13.30
2023-01-13T19:02:39.978Z,14.10
2023-01-13T19:05:08.474Z,13.13
2023-01-13T19:07:37.257Z,10.37
2023-01-13T19:10:06.535Z,10.77
2023-01-13T19:12:34.620Z,11.17
2023-01-13T19:15:04.429Z,9.60
2023-01-13T19:17:34.900Z,10.23
2023-01-13T19:20:03.688Z,13.87
2023-01-13T19:22:33.592Z,14.83
2023-01-13T19:25:02.988Z,13.90
2023-01-13T19:27:31.514Z,12.50
2023-01-13T19:30:00.633Z,13.53
2023-01-13T19:32:30.797Z,14.83
2023-01-13T19:34:59.807Z,15.07
2023-01-13T19:37:30.256Z,11.97
2023-01-13T19:39:59.140Z,14.37
2023-01-13T19:42:44.910Z,15.30
2023-01-13T19:45:31.769Z,11.50
2023-01-13T19:48:04.670Z,14.03
2023-01-13T19:50:36.084Z,15.83
2023-01-13T19:53:04.000Z,18.50
2023-01-13T19:55:32.125Z,19.87
2023-01-13T19:58:00.419Z,14.97
2023-01-13T20:00:29.073Z,17.37
2023-01-13T20:03:02.932Z,13.57
2023-01-13T20:05:32.258Z,14.33
2023-01-13T20:08:00.115Z,9.63
2023-01-13T20:10:30.332Z,11.73
2023-01-13T20:12:58.329Z,12.53
2023-01-13T20:15:26.272Z,10.27
2023-01-13T20:17:54.179Z,13.20
2023-01-13T20:20:22.187Z,13.07
2023-01-13T20:22:51.427Z,17.23
2023-01-13T20:25:20.011Z,11.50
2023-01-13T20:27:49.174Z,14.73
2023-01-13T20:30:17.313Z,11.57
2023-01-13T20:32:45.385Z,14.20
2023-01-13T20:35:13.665Z,12.83
2023-01-13T20:37:43.056Z,16.93
2023-01-13T20:40:16.018Z,13.77
2023-01-13T20:42:44.746Z,12.67
2023-01-13T20:45:17.099Z,14.87
2023-01-13T20:47:46.156Z,15.00
2023-01-13T20:50:14.520Z,16.10
2023-01-13T20:52:42.547Z,17.17
2023-01-13T20:55:12.169Z,21.57
2023-01-13T20:57:40.171Z,16.90
2023-01-13T21:00:10.087Z,17.37
2023-01-13T21:02:40.649Z,22.87
2023-01-13T21:05:09.602Z,20.40
2023-01-13T21:07:37.489Z,16.83
2023-01-13T21:10:05.993Z,11.70
2023-01-13T21:12:52.789Z,20.93
2023-01-13T21:15:21.827Z,13.10
2023-01-13T21:18:09.221Z,19.00
2023-01-13T21:20:38.478Z,21.73
2023-01-13T21:23:06.679Z,16.43
2023-01-13T21:25:36.976Z,17.40
2023-01-13T21:28:07.723Z,21.97
2023-01-13T21:30:37.553Z,19.13
2023-01-13T21:33:06.146Z,17.83
2023-01-13T21:35:34.231Z,19.43
2023-01-13T21:38:02.207Z,24.27
2023-01-13T21:40:48.207Z,26.57
2023-01-13T21:43:34.736Z,16.70
2023-01-13T21:46:31.517Z,19.03
2023-01-13T21:48:59.654Z,16.87
2023-01-13T21:51:27.681Z,17.73
2023-01-13T21:53:56.652Z,20.00
2023-01-13T21:56:25.351Z,19.63
2023-01-13T21:58:55.970Z,21.53
2023-01-13T22:01:24.247Z,27.10
2023-01-13T22:04:09.041Z,17.13
2023-01-13T22:06:36.955Z,22.70
2023-01-13T22:09:05.415Z,19.40
2023-01-13T22:11:33.696Z,24.87
2023-01-13T22:16:56.797Z,27.33
2023-01-13T22:19:25.011Z,20.67
2023-01-13T22:21:52.911Z,19.03
2023-01-13T22:24:21.231Z,20.60
2023-01-13T22:26:49.110Z,21.10
2023-01-13T22:29:18.523Z,20.30
2023-01-13T22:31:46.537Z,19.97
2023-01-13T22:34:14.533Z,17.73
2023-01-13T22:36:42.430Z,25.57
2023-01-13T22:39:12.156Z,13.97
2023-01-13T22:41:40.048Z,19.53
2023-01-13T22:44:08.142Z,18.83
2023-01-13T22:46:37.556Z,15.47
2023-01-13T22:49:05.720Z,18.40
2023-01-13T22:51:33.604Z,18.10
2023-01-13T22:54:01.670Z,17.17
2023-01-13T22:56:29.768Z,21.07
2023-01-13T22:59:00.418Z,20.33
2023-01-13T23:01:30.837Z,20.57
2023-01-13T23:04:00.811Z,22.20
2023-01-13T23:06:31.499Z,24.60
2023-01-13T23:08:59.710Z,17.57
2023-01-13T23:11:30.471Z,23.33
2023-01-13T23:14:00.029Z,15.70
2023-01-13T23:16:30.145Z,19.13
2023-01-13T23:18:59.726Z,20.50
2023-01-13T23:21:29.692Z,22.43
2023-01-13T23:23:58.858Z,20.73
2023-01-13T23:26:27.023Z,26.37
2023-01-13T23:28:59.473Z,15.40
2023-01-13T23:31:27.379Z,17.37
2023-01-13T23:33:55.322Z,20.57
2023-01-13T23:36:26.724Z,19.40
2023-01-13T23:38:55.163Z,20.63
2023-01-13T23:41:25.361Z,20.47
2023-01-13T23:43:55.767Z,21.70
2023-01-13T23:46:24.609Z,20.43
2023-01-13T23:48:52.979Z,16.10
2023-01-13T23:51:21.943Z,16.13
2023-01-13T23:53:51.800Z,20.10
2023-01-13T23:56:21.497Z,17.23
2023-01-13T23:58:50.589Z,17.57
